New Orleans, Louisiana
Traffic Map
Current Weather Conditions
New Orleans, Louisiana
Overcast
Overcast
72°
Feels Like: 72°
Wind Chill: 72° Ceiling: 2900
Heat Index: 72° Visibility: 10mi
Dew Point: 55° Wind: 9mph
Humidity: 57% Direction: 10° (N)
Pressure: 30.06in Gusts: 0mph
Raw Report DataKVSH 182035Z AUTO 01008KT 10SM BKN029 OVC034 22/13 A3006 RMK AO1
Traffic Incident Summary
Active as of:
Severity:
Category:
InformationThere was an issue retrieving the traffic information for this location. Please try a different location or try again shortly.
Advertisements
At Last! Intellicast now available for iPhone and Android